sensor_id;sensor_type;location;lat;lon;timestamp;pressure;altitude;pressure_sealevel;temperature;humidity
30873;BME280;17579;42.690;2.586;2022-07-22T00:02:09;97179.72;;;30.69;32.81
30873;BME280;17579;42.690;2.586;2022-07-22T00:04:35;97182.19;;;30.71;32.71
30873;BME280;17579;42.690;2.586;2022-07-22T00:07:01;97182.47;;;30.69;32.56
30873;BME280;17579;42.690;2.586;2022-07-22T00:09:26;97179.44;;;30.71;32.62
30873;BME280;17579;42.690;2.586;2022-07-22T00:11:52;97182.72;;;30.73;32.65
30873;BME280;17579;42.690;2.586;2022-07-22T00:14:18;97174.00;;;30.71;32.31
30873;BME280;17579;42.690;2.586;2022-07-22T00:16:43;97174.56;;;30.68;32.75
30873;BME280;17579;42.690;2.586;2022-07-22T00:19:09;97174.56;;;30.68;32.42
30873;BME280;17579;42.690;2.586;2022-07-22T00:21:35;97168.28;;;30.62;32.76
30873;BME280;17579;42.690;2.586;2022-07-22T00:24:00;97171.28;;;30.61;32.73
30873;BME280;17579;42.690;2.586;2022-07-22T00:26:26;97165.84;;;30.61;32.51
30873;BME280;17579;42.690;2.586;2022-07-22T00:28:52;97169.94;;;30.58;32.62
30873;BME280;17579;42.690;2.586;2022-07-22T00:31:17;97167.19;;;30.58;32.67
30873;BME280;17579;42.690;2.586;2022-07-22T00:33:43;97163.38;;;30.59;32.75
30873;BME280;17579;42.690;2.586;2022-07-22T00:36:09;97162.53;;;30.58;32.87
30873;BME280;17579;42.690;2.586;2022-07-22T00:38:34;97156.56;;;30.56;32.76
30873;BME280;17579;42.690;2.586;2022-07-22T00:41:00;97153.03;;;30.56;32.89
30873;BME280;17579;42.690;2.586;2022-07-22T00:43:26;97156.84;;;30.55;32.45
30873;BME280;17579;42.690;2.586;2022-07-22T00:45:51;97152.75;;;30.52;32.46
30873;BME280;17579;42.690;2.586;2022-07-22T00:48:17;97155.75;;;30.51;32.51
30873;BME280;17579;42.690;2.586;2022-07-22T00:50:43;97149.50;;;30.50;32.73
30873;BME280;17579;42.690;2.586;2022-07-22T00:53:09;97142.38;;;30.49;32.38
30873;BME280;17579;42.690;2.586;2022-07-22T00:55:36;97148.13;;;30.48;32.77
30873;BME280;17579;42.690;2.586;2022-07-22T00:58:03;97144.03;;;30.45;32.61
30873;BME280;17579;42.690;2.586;2022-07-22T01:00:29;97147.31;;;30.42;32.78
30873;BME280;17579;42.690;2.586;2022-07-22T01:02:55;97141.03;;;30.36;32.68
30873;BME280;17579;42.690;2.586;2022-07-22T01:05:21;97148.41;;;30.31;32.55
30873;BME280;17579;42.690;2.586;2022-07-22T01:07:47;97152.75;;;30.27;33.08
30873;BME280;17579;42.690;2.586;2022-07-22T01:10:13;97151.69;;;30.22;33.26
30873;BME280;17579;42.690;2.586;2022-07-22T01:12:39;97145.41;;;30.17;33.19
30873;BME280;17579;42.690;2.586;2022-07-22T01:15:06;97146.81;;;30.14;33.28
30873;BME280;17579;42.690;2.586;2022-07-22T01:17:32;97147.31;;;30.11;33.08
30873;BME280;17579;42.690;2.586;2022-07-22T01:20:01;97141.63;;;30.08;33.09
30873;BME280;17579;42.690;2.586;2022-07-22T01:22:26;97140.81;;;30.07;33.52
30873;BME280;17579;42.690;2.586;2022-07-22T01:24:52;97144.06;;;30.04;33.54
30873;BME280;17579;42.690;2.586;2022-07-22T01:27:18;97140.53;;;30.03;33.15
30873;BME280;17579;42.690;2.586;2022-07-22T01:29:43;97150.63;;;30.03;33.06
30873;BME280;17579;42.690;2.586;2022-07-22T01:32:09;97144.59;;;30.01;33.11
30873;BME280;17579;42.690;2.586;2022-07-22T01:34:34;97143.00;;;30.00;33.22
30873;BME280;17579;42.690;2.586;2022-07-22T01:37:00;97140.78;;;29.97;33.27
30873;BME280;17579;42.690;2.586;2022-07-22T01:39:25;97142.19;;;29.94;33.49
30873;BME280;17579;42.690;2.586;2022-07-22T01:41:51;97138.63;;;29.88;33.51
30873;BME280;17579;42.690;2.586;2022-07-22T01:44:16;97147.91;;;29.87;33.52
30873;BME280;17579;42.690;2.586;2022-07-22T01:46:42;97148.44;;;29.89;33.47
30873;BME280;17579;42.690;2.586;2022-07-22T01:49:08;97145.97;;;29.88;33.57
30873;BME280;17579;42.690;2.586;2022-07-22T01:51:33;97146.81;;;29.88;33.25
30873;BME280;17579;42.690;2.586;2022-07-22T01:53:59;97156.59;;;29.89;33.30
30873;BME280;17579;42.690;2.586;2022-07-22T01:56:24;97142.97;;;29.89;33.59
30873;BME280;17579;42.690;2.586;2022-07-22T01:58:50;97142.69;;;29.91;33.31
30873;BME280;17579;42.690;2.586;2022-07-22T02:01:15;97142.44;;;29.93;33.42
30873;BME280;17579;42.690;2.586;2022-07-22T02:03:41;97144.63;;;29.96;33.47
30873;BME280;17579;42.690;2.586;2022-07-22T02:06:07;97144.06;;;29.94;33.05
30873;BME280;17579;42.690;2.586;2022-07-22T02:08:32;97142.44;;;29.93;33.40
30873;BME280;17579;42.690;2.586;2022-07-22T02:10:59;97149.53;;;29.94;33.50
30873;BME280;17579;42.690;2.586;2022-07-22T02:13:24;97146.00;;;29.93;33.58
30873;BME280;17579;42.690;2.586;2022-07-22T02:15:50;97146.50;;;29.95;33.16
30873;BME280;17579;42.690;2.586;2022-07-22T02:18:17;97143.78;;;29.95;33.34
30873;BME280;17579;42.690;2.586;2022-07-22T02:20:43;97145.72;;;29.95;33.38
30873;BME280;17579;42.690;2.586;2022-07-22T02:23:09;97146.78;;;29.94;33.25
30873;BME280;17579;42.690;2.586;2022-07-22T02:25:36;97141.63;;;29.92;33.39
30873;BME280;17579;42.690;2.586;2022-07-22T02:28:02;97143.81;;;29.90;33.51
30873;BME280;17579;42.690;2.586;2022-07-22T02:30:28;97142.44;;;29.93;33.57
30873;BME280;17579;42.690;2.586;2022-07-22T02:32:54;97142.97;;;29.95;33.44
30873;BME280;17579;42.690;2.586;2022-07-22T02:35:19;97141.91;;;29.96;33.54
30873;BME280;17579;42.690;2.586;2022-07-22T02:37:45;97138.06;;;29.97;33.47
30873;BME280;17579;42.690;2.586;2022-07-22T02:40:10;97140.78;;;29.97;33.53
30873;BME280;17579;42.690;2.586;2022-07-22T02:42:36;97136.16;;;29.97;33.08
30873;BME280;17579;42.690;2.586;2022-07-22T02:45:03;97145.16;;;29.98;33.55
30873;BME280;17579;42.690;2.586;2022-07-22T02:47:28;97144.63;;;29.96;33.49
30873;BME280;17579;42.690;2.586;2022-07-22T02:49:54;97149.25;;;29.90;33.74
30873;BME280;17579;42.690;2.586;2022-07-22T02:52:20;97145.44;;;29.86;33.57
30873;BME280;17579;42.690;2.586;2022-07-22T02:54:45;97154.16;;;29.83;33.27
30873;BME280;17579;42.690;2.586;2022-07-22T02:57:11;97141.88;;;29.80;33.32
30873;BME280;17579;42.690;2.586;2022-07-22T02:59:36;97144.31;;;29.77;33.39
30873;BME280;17579;42.690;2.586;2022-07-22T03:02:02;97145.41;;;29.70;33.72
30873;BME280;17579;42.690;2.586;2022-07-22T03:04:28;97143.50;;;29.66;33.78
30873;BME280;17579;42.690;2.586;2022-07-22T03:06:54;97151.91;;;29.59;33.57
30873;BME280;17579;42.690;2.586;2022-07-22T03:09:20;97153.28;;;29.57;33.64
30873;BME280;17579;42.690;2.586;2022-07-22T03:11:45;97146.47;;;29.54;34.04
30873;BME280;17579;42.690;2.586;2022-07-22T03:14:11;97147.00;;;29.51;33.65
30873;BME280;17579;42.690;2.586;2022-07-22T03:16:37;97136.66;;;29.48;33.84
30873;BME280;17579;42.690;2.586;2022-07-22T03:19:02;97142.38;;;29.46;33.94
30873;BME280;17579;42.690;2.586;2022-07-22T03:21:28;97144.81;;;29.43;34.08
30873;BME280;17579;42.690;2.586;2022-07-22T03:23:54;97145.38;;;29.40;33.82
30873;BME280;17579;42.690;2.586;2022-07-22T03:26:21;97135.00;;;29.36;34.24
30873;BME280;17579;42.690;2.586;2022-07-22T03:28:47;97140.97;;;29.33;34.51
30873;BME280;17579;42.690;2.586;2022-07-22T03:31:13;97135.00;;;29.31;34.39
30873;BME280;17579;42.690;2.586;2022-07-22T03:33:39;97142.34;;;29.26;34.79
30873;BME280;17579;42.690;2.586;2022-07-22T03:36:04;97138.75;;;29.20;34.89
30873;BME280;17579;42.690;2.586;2022-07-22T03:38:34;97137.66;;;29.16;35.23
30873;BME280;17579;42.690;2.586;2022-07-22T03:40:59;97141.16;;;29.16;35.48
30873;BME280;17579;42.690;2.586;2022-07-22T03:43:25;97140.91;;;29.13;35.77
30873;BME280;17579;42.690;2.586;2022-07-22T03:45:51;97137.06;;;29.09;35.50
30873;BME280;17579;42.690;2.586;2022-07-22T03:48:16;97141.16;;;29.06;35.51
30873;BME280;17579;42.690;2.586;2022-07-22T03:50:42;97137.88;;;29.04;35.69
30873;BME280;17579;42.690;2.586;2022-07-22T03:53:07;97133.53;;;29.03;35.74
30873;BME280;17579;42.690;2.586;2022-07-22T03:55:33;97135.44;;;29.02;35.85
30873;BME280;17579;42.690;2.586;2022-07-22T03:57:58;97138.16;;;29.02;35.72
30873;BME280;17579;42.690;2.586;2022-07-22T04:00:24;97146.59;;;29.01;36.05
30873;BME280;17579;42.690;2.586;2022-07-22T04:02:50;97145.75;;;29.00;36.23
30873;BME280;17579;42.690;2.586;2022-07-22T04:05:15;97142.22;;;29.00;36.09
30873;BME280;17579;42.690;2.586;2022-07-22T04:07:41;97146.88;;;28.99;36.03
30873;BME280;17579;42.690;2.586;2022-07-22T04:10:07;97150.41;;;29.00;35.98
30873;BME280;17579;42.690;2.586;2022-07-22T04:12:37;97148.47;;;28.95;36.27
30873;BME280;17579;42.690;2.586;2022-07-22T04:15:04;97147.91;;;28.93;36.43
30873;BME280;17579;42.690;2.586;2022-07-22T04:17:30;97156.06;;;28.88;36.05
30873;BME280;17579;42.690;2.586;2022-07-22T04:19:56;97159.84;;;28.82;36.40
30873;BME280;17579;42.690;2.586;2022-07-22T04:22:22;97153.31;;;28.78;36.17
30873;BME280;17579;42.690;2.586;2022-07-22T04:24:48;97152.47;;;28.72;36.60
30873;BME280;17579;42.690;2.586;2022-07-22T04:27:13;97162.78;;;28.70;36.41
30873;BME280;17579;42.690;2.586;2022-07-22T04:29:39;97163.59;;;28.65;36.30
30873;BME280;17579;42.690;2.586;2022-07-22T04:32:05;97164.34;;;28.61;36.29
30873;BME280;17579;42.690;2.586;2022-07-22T04:34:30;97166.75;;;28.57;36.38
30873;BME280;17579;42.690;2.586;2022-07-22T04:36:56;97165.38;;;28.55;36.83
30873;BME280;17579;42.690;2.586;2022-07-22T04:39:22;97164.56;;;28.49;36.98
30873;BME280;17579;42.690;2.586;2022-07-22T04:41:47;97169.44;;;28.47;37.00
30873;BME280;17579;42.690;2.586;2022-07-22T04:44:13;97171.34;;;28.46;36.71
30873;BME280;17579;42.690;2.586;2022-07-22T04:46:38;97176.72;;;28.41;36.98
30873;BME280;17579;42.690;2.586;2022-07-22T04:49:04;97172.94;;;28.42;36.67
30873;BME280;17579;42.690;2.586;2022-07-22T04:51:30;97175.41;;;28.44;36.97
30873;BME280;17579;42.690;2.586;2022-07-22T04:53:56;97176.22;;;28.44;36.81
30873;BME280;17579;42.690;2.586;2022-07-22T04:56:21;97168.56;;;28.41;37.27
30873;BME280;17579;42.690;2.586;2022-07-22T04:58:47;97168.31;;;28.43;37.07
30873;BME280;17579;42.690;2.586;2022-07-22T05:01:12;97166.94;;;28.40;37.31
30873;BME280;17579;42.690;2.586;2022-07-22T05:03:39;97172.38;;;28.40;37.20
30873;BME280;17579;42.690;2.586;2022-07-22T05:06:05;97172.94;;;28.42;37.59
30873;BME280;17579;42.690;2.586;2022-07-22T05:08:31;97181.97;;;28.48;37.45
30873;BME280;17579;42.690;2.586;2022-07-22T05:10:57;97177.63;;;28.52;37.48
30873;BME280;17579;42.690;2.586;2022-07-22T05:13:22;97185.25;;;28.55;37.35
30873;BME280;17579;42.690;2.586;2022-07-22T05:15:48;97185.81;;;28.57;37.28
30873;BME280;17579;42.690;2.586;2022-07-22T05:18:15;97192.09;;;28.58;37.02
30873;BME280;17579;42.690;2.586;2022-07-22T05:20:41;97193.22;;;28.62;37.08
30873;BME280;17579;42.690;2.586;2022-07-22T05:23:07;97187.00;;;28.66;37.47
30873;BME280;17579;42.690;2.586;2022-07-22T05:25:32;97191.69;;;28.76;37.04
30873;BME280;17579;42.690;2.586;2022-07-22T05:27:58;97190.63;;;28.82;37.28
30873;BME280;17579;42.690;2.586;2022-07-22T05:30:24;97197.97;;;28.87;37.11
30873;BME280;17579;42.690;2.586;2022-07-22T05:32:50;97197.22;;;28.97;37.38
30873;BME280;17579;42.690;2.586;2022-07-22T05:35:16;97199.44;;;29.05;37.29
30873;BME280;17579;42.690;2.586;2022-07-22T05:37:42;97200.81;;;29.13;36.65
30873;BME280;17579;42.690;2.586;2022-07-22T05:40:08;97201.94;;;29.22;36.59
30873;BME280;17579;42.690;2.586;2022-07-22T05:42:34;97200.66;;;29.30;36.68
30873;BME280;17579;42.690;2.586;2022-07-22T05:45:00;97204.78;;;29.43;36.76
30873;BME280;17579;42.690;2.586;2022-07-22T05:47:25;97200.72;;;29.55;36.22
30873;BME280;17579;42.690;2.586;2022-07-22T05:49:51;97215.44;;;29.75;36.40
30873;BME280;17579;42.690;2.586;2022-07-22T05:52:16;97214.44;;;29.92;36.02
30873;BME280;17579;42.690;2.586;2022-07-22T05:54:42;97212.25;;;30.09;35.97
30873;BME280;17579;42.690;2.586;2022-07-22T05:57:07;97210.06;;;30.27;35.33
30873;BME280;17579;42.690;2.586;2022-07-22T05:59:35;97214.19;;;30.45;35.41
30873;BME280;17579;42.690;2.586;2022-07-22T06:02:01;97209.78;;;30.54;35.20
30873;BME280;17579;42.690;2.586;2022-07-22T06:04:26;97210.88;;;30.58;34.99
30873;BME280;17579;42.690;2.586;2022-07-22T06:06:52;97211.69;;;30.58;34.55
30873;BME280;17579;42.690;2.586;2022-07-22T06:09:18;97214.94;;;30.71;34.62
30873;BME280;17579;42.690;2.586;2022-07-22T06:11:43;97217.06;;;30.89;34.52
30873;BME280;17579;42.690;2.586;2022-07-22T06:14:09;97221.97;;;31.08;34.00
30873;BME280;17579;42.690;2.586;2022-07-22T06:16:34;97215.88;;;31.21;33.93
30873;BME280;17579;42.690;2.586;2022-07-22T06:19:01;97212.31;;;31.31;33.64
30873;BME280;17579;42.690;2.586;2022-07-22T06:21:27;97216.13;;;31.35;33.49
30873;BME280;17579;42.690;2.586;2022-07-22T06:23:53;97215.78;;;31.47;33.02
30873;BME280;17579;42.690;2.586;2022-07-22T06:26:18;97214.06;;;31.56;33.35
30873;BME280;17579;42.690;2.586;2022-07-22T06:28:44;97215.75;;;31.57;32.99
30873;BME280;17579;42.690;2.586;2022-07-22T06:31:09;97222.03;;;31.58;33.34
30873;BME280;17579;42.690;2.586;2022-07-22T06:33:35;97232.34;;;31.66;33.41
30873;BME280;17579;42.690;2.586;2022-07-22T06:36:03;97223.00;;;31.77;32.96
30873;BME280;17579;42.690;2.586;2022-07-22T06:38:29;97226.16;;;31.95;32.60
30873;BME280;17579;42.690;2.586;2022-07-22T06:40:55;97224.13;;;32.11;32.04
30873;BME280;17579;42.690;2.586;2022-07-22T06:43:20;97225.19;;;32.20;32.29
30873;BME280;17579;42.690;2.586;2022-07-22T06:45:46;97233.38;;;32.25;32.05
30873;BME280;17579;42.690;2.586;2022-07-22T06:48:11;97236.28;;;32.34;31.85
30873;BME280;17579;42.690;2.586;2022-07-22T06:50:37;97239.03;;;32.34;32.12
30873;BME280;17579;42.690;2.586;2022-07-22T06:53:03;97233.69;;;32.48;31.84
30873;BME280;17579;42.690;2.586;2022-07-22T06:55:28;97236.63;;;32.57;31.72
30873;BME280;17579;42.690;2.586;2022-07-22T06:57:54;97231.09;;;32.62;31.31
30873;BME280;17579;42.690;2.586;2022-07-22T07:00:21;97240.34;;;32.71;31.56
30873;BME280;17579;42.690;2.586;2022-07-22T07:02:48;97241.66;;;32.79;31.20
30873;BME280;17579;42.690;2.586;2022-07-22T07:05:14;97247.53;;;32.91;31.11
30873;BME280;17579;42.690;2.586;2022-07-22T07:07:40;97248.41;;;33.11;31.21
30873;BME280;17579;42.690;2.586;2022-07-22T07:10:06;97251.34;;;33.44;30.58
30873;BME280;17579;42.690;2.586;2022-07-22T07:12:32;97254.09;;;33.63;30.12
30873;BME280;17579;42.690;2.586;2022-07-22T07:14:57;97257.16;;;33.80;29.65
30873;BME280;17579;42.690;2.586;2022-07-22T07:17:23;97262.22;;;33.92;29.61
30873;BME280;17579;42.690;2.586;2022-07-22T07:19:49;97264.66;;;34.13;29.40
30873;BME280;17579;42.690;2.586;2022-07-22T07:22:15;97270.97;;;34.32;29.33
30873;BME280;17579;42.690;2.586;2022-07-22T07:24:41;97261.84;;;34.51;29.08
30873;BME280;17579;42.690;2.586;2022-07-22T07:27:07;97274.63;;;34.75;28.87
30873;BME280;17579;42.690;2.586;2022-07-22T07:29:32;97267.97;;;34.95;28.49
30873;BME280;17579;42.690;2.586;2022-07-22T07:31:58;97272.38;;;35.24;28.35
30873;BME280;17579;42.690;2.586;2022-07-22T07:34:23;97279.63;;;35.47;28.01
30873;BME280;17579;42.690;2.586;2022-07-22T07:36:49;97274.63;;;35.49;27.46
30873;BME280;17579;42.690;2.586;2022-07-22T07:39:15;97276.66;;;35.44;27.24
30873;BME280;17579;42.690;2.586;2022-07-22T07:41:41;97270.63;;;35.55;26.93
30873;BME280;17579;42.690;2.586;2022-07-22T07:44:07;97264.81;;;35.71;26.45
30873;BME280;17579;42.690;2.586;2022-07-22T07:46:33;97270.81;;;35.73;27.00
30873;BME280;17579;42.690;2.586;2022-07-22T07:48:58;97262.97;;;35.80;26.19
30873;BME280;17579;42.690;2.586;2022-07-22T07:51:24;97268.19;;;35.68;26.44
30873;BME280;17579;42.690;2.586;2022-07-22T07:53:49;97262.06;;;35.71;26.79
30873;BME280;17579;42.690;2.586;2022-07-22T07:56:16;97264.19;;;35.60;27.31
30873;BME280;17579;42.690;2.586;2022-07-22T07:58:42;97258.53;;;35.56;26.61
30873;BME280;17579;42.690;2.586;2022-07-22T08:01:07;97256.00;;;35.32;27.13
30873;BME280;17579;42.690;2.586;2022-07-22T08:03:33;97251.41;;;35.28;27.14
30873;BME280;17579;42.690;2.586;2022-07-22T08:05:59;97253.03;;;35.29;27.15
30873;BME280;17579;42.690;2.586;2022-07-22T08:08:25;97251.81;;;35.35;26.83
30873;BME280;17579;42.690;2.586;2022-07-22T08:10:51;97243.16;;;35.28;26.96
30873;BME280;17579;42.690;2.586;2022-07-22T08:13:17;97243.75;;;35.38;27.21
30873;BME280;17579;42.690;2.586;2022-07-22T08:15:43;97240.78;;;35.63;26.62
30873;BME280;17579;42.690;2.586;2022-07-22T08:18:08;97240.84;;;35.71;26.42
30873;BME280;17579;42.690;2.586;2022-07-22T08:20:34;97243.44;;;35.54;26.67
30873;BME280;17579;42.690;2.586;2022-07-22T08:23:00;97237.22;;;35.62;26.82
30873;BME280;17579;42.690;2.586;2022-07-22T08:25:25;97236.81;;;35.69;26.04
30873;BME280;17579;42.690;2.586;2022-07-22T08:27:51;97244.22;;;35.68;26.13
30873;BME280;17579;42.690;2.586;2022-07-22T08:30:18;97248.09;;;35.81;26.02
30873;BME280;17579;42.690;2.586;2022-07-22T08:32:46;97244.69;;;35.98;26.32
30873;BME280;17579;42.690;2.586;2022-07-22T08:35:12;97242.69;;;36.13;26.16
30873;BME280;17579;42.690;2.586;2022-07-22T08:37:38;97242.78;;;36.07;26.43
30873;BME280;17579;42.690;2.586;2022-07-22T08:40:05;97246.44;;;36.17;26.17
30873;BME280;17579;42.690;2.586;2022-07-22T08:42:33;97248.69;;;36.15;26.06
30873;BME280;17579;42.690;2.586;2022-07-22T08:45:01;97250.03;;;36.40;25.89
30873;BME280;17579;42.690;2.586;2022-07-22T08:47:28;97252.84;;;36.49;25.65
30873;BME280;17579;42.690;2.586;2022-07-22T08:49:53;97241.63;;;36.22;25.98
30873;BME280;17579;42.690;2.586;2022-07-22T08:52:19;97242.75;;;36.21;25.99
30873;BME280;17579;42.690;2.586;2022-07-22T08:54:45;97249.75;;;36.28;25.84
30873;BME280;17579;42.690;2.586;2022-07-22T08:57:10;97238.50;;;36.15;26.01
30873;BME280;17579;42.690;2.586;2022-07-22T08:59:52;97239.31;;;36.16;26.53
30873;BME280;17579;42.690;2.586;2022-07-22T09:02:19;97240.69;;;36.27;26.08
30873;BME280;17579;42.690;2.586;2022-07-22T09:04:57;97238.66;;;36.33;26.59
30873;BME280;17579;42.690;2.586;2022-07-22T09:07:30;97228.56;;;36.28;26.39
30873;BME280;17579;42.690;2.586;2022-07-22T09:09:58;97226.53;;;36.20;26.58
30873;BME280;17579;42.690;2.586;2022-07-22T09:12:25;97225.00;;;36.05;26.14
30873;BME280;17579;42.690;2.586;2022-07-22T09:14:53;97222.53;;;35.81;26.11
30873;BME280;17579;42.690;2.586;2022-07-22T09:17:25;97215.91;;;35.68;26.76
30873;BME280;17579;42.690;2.586;2022-07-22T09:19:51;97233.13;;;35.60;26.68
30873;BME280;17579;42.690;2.586;2022-07-22T09:25:29;97219.13;;;35.47;26.71
30873;BME280;17579;42.690;2.586;2022-07-22T09:28:10;97220.56;;;35.31;27.03
30873;BME280;17579;42.690;2.586;2022-07-22T09:30:39;97220.47;;;35.36;27.45
30873;BME280;17579;42.690;2.586;2022-07-22T09:33:06;97224.13;;;35.31;27.61
30873;BME280;17579;42.690;2.586;2022-07-22T09:35:32;97221.78;;;35.25;27.87
30873;BME280;17579;42.690;2.586;2022-07-22T09:38:02;97233.56;;;35.25;27.69
30873;BME280;17579;42.690;2.586;2022-07-22T09:40:31;97226.34;;;35.15;28.15
30873;BME280;17579;42.690;2.586;2022-07-22T09:42:59;97235.72;;;35.14;28.19
30873;BME280;17579;42.690;2.586;2022-07-22T09:45:30;97231.03;;;35.15;27.82
30873;BME280;17579;42.690;2.586;2022-07-22T09:47:58;97231.47;;;35.36;27.87
30873;BME280;17579;42.690;2.586;2022-07-22T09:50:30;97234.09;;;35.27;27.54
30873;BME280;17579;42.690;2.586;2022-07-22T09:52:57;97231.34;;;35.27;27.68
30873;BME280;17579;42.690;2.586;2022-07-22T09:55:24;97227.56;;;35.23;27.40
30873;BME280;17579;42.690;2.586;2022-07-22T09:57:52;97218.31;;;35.19;27.69
30873;BME280;17579;42.690;2.586;2022-07-22T10:00:26;97214.53;;;35.15;27.95
30873;BME280;17579;42.690;2.586;2022-07-22T10:02:55;97213.91;;;35.04;27.72
30873;BME280;17579;42.690;2.586;2022-07-22T10:05:26;97214.53;;;35.01;27.81
30873;BME280;17579;42.690;2.586;2022-07-22T10:07:54;97217.91;;;35.12;27.42
30873;BME280;17579;42.690;2.586;2022-07-22T10:10:24;97218.63;;;35.17;27.56
30873;BME280;17579;42.690;2.586;2022-07-22T10:12:52;97207.72;;;35.12;27.63
30873;BME280;17579;42.690;2.586;2022-07-22T10:15:21;97214.53;;;35.15;27.57
30873;BME280;17579;42.690;2.586;2022-07-22T10:17:51;97205.06;;;35.21;27.50
30873;BME280;17579;42.690;2.586;2022-07-22T10:20:22;97203.53;;;35.29;27.29
30873;BME280;17579;42.690;2.586;2022-07-22T10:22:56;97207.19;;;35.24;27.57
30873;BME280;17579;42.690;2.586;2022-07-22T10:25:24;97207.31;;;35.33;27.35
30873;BME280;17579;42.690;2.586;2022-07-22T10:30:39;97202.19;;;35.54;26.85
30873;BME280;17579;42.690;2.586;2022-07-22T10:33:11;97199.13;;;35.55;26.93
30873;BME280;17579;42.690;2.586;2022-07-22T10:36:01;97193.38;;;35.66;26.81
30873;BME280;17579;42.690;2.586;2022-07-22T10:38:29;97189.28;;;35.77;26.34
30873;BME280;17579;42.690;2.586;2022-07-22T10:41:05;97189.72;;;35.70;26.58
30873;BME280;17579;42.690;2.586;2022-07-22T10:43:50;97188.25;;;35.73;26.60
30873;BME280;17579;42.690;2.586;2022-07-22T10:46:16;97186.00;;;35.89;26.20
30873;BME280;17579;42.690;2.586;2022-07-22T10:48:45;97183.56;;;35.87;26.48
30873;BME280;17579;42.690;2.586;2022-07-22T10:51:17;97186.75;;;35.81;26.33
30873;BME280;17579;42.690;2.586;2022-07-22T10:54:00;97177.25;;;35.73;26.39
30873;BME280;17579;42.690;2.586;2022-07-22T10:56:35;97179.22;;;35.72;26.37
30873;BME280;17579;42.690;2.586;2022-07-22T10:59:13;97179.53;;;35.71;26.38
30873;BME280;17579;42.690;2.586;2022-07-22T11:01:43;97172.69;;;35.82;26.35
30873;BME280;17579;42.690;2.586;2022-07-22T11:04:17;97169.69;;;35.93;25.82
30873;BME280;17579;42.690;2.586;2022-07-22T11:06:45;97174.69;;;35.90;25.82
30873;BME280;17579;42.690;2.586;2022-07-22T11:09:13;97166.63;;;35.94;25.56
30873;BME280;17579;42.690;2.586;2022-07-22T11:11:42;97169.25;;;35.99;25.63
30873;BME280;17579;42.690;2.586;2022-07-22T11:16:59;97170.00;;;35.91;25.63
30873;BME280;17579;42.690;2.586;2022-07-22T11:19:27;97169.19;;;35.90;25.49
30873;BME280;17579;42.690;2.586;2022-07-22T11:21:56;97169.03;;;35.96;25.85
30873;BME280;17579;42.690;2.586;2022-07-22T11:24:23;97169.09;;;36.04;25.46
30873;BME280;17579;42.690;2.586;2022-07-22T11:26:54;97163.59;;;36.04;25.79
30873;BME280;17579;42.690;2.586;2022-07-22T11:29:33;97168.47;;;36.07;25.59
30873;BME280;17579;42.690;2.586;2022-07-22T11:32:00;97163.34;;;36.15;25.59
30873;BME280;17579;42.690;2.586;2022-07-22T11:34:27;97160.28;;;36.16;25.30
30873;BME280;17579;42.690;2.586;2022-07-22T11:36:54;97162.19;;;36.30;25.44
30873;BME280;17579;42.690;2.586;2022-07-22T11:39:21;97155.91;;;36.38;25.05
30873;BME280;17579;42.690;2.586;2022-07-22T11:41:48;97149.28;;;36.48;25.26
30873;BME280;17579;42.690;2.586;2022-07-22T11:44:19;97143.47;;;36.49;25.14
30873;BME280;17579;42.690;2.586;2022-07-22T11:46:45;97144.00;;;36.60;24.78
30873;BME280;17579;42.690;2.586;2022-07-22T11:49:17;97145.16;;;36.68;24.85
30873;BME280;17579;42.690;2.586;2022-07-22T11:51:44;97140.38;;;36.82;25.00
30873;BME280;17579;42.690;2.586;2022-07-22T11:54:10;97139.91;;;36.89;24.49
30873;BME280;17579;42.690;2.586;2022-07-22T11:56:36;97136.84;;;36.90;24.15
30873;BME280;17579;42.690;2.586;2022-07-22T11:59:03;97139.56;;;36.82;24.51
30873;BME280;17579;42.690;2.586;2022-07-22T12:01:36;97141.38;;;36.86;24.70
30873;BME280;17579;42.690;2.586;2022-07-22T12:04:04;97144.13;;;36.86;24.42
30873;BME280;17579;42.690;2.586;2022-07-22T12:06:32;97143.44;;;36.81;24.35
30873;BME280;17579;42.690;2.586;2022-07-22T12:09:22;97134.16;;;36.76;24.91
30873;BME280;17579;42.690;2.586;2022-07-22T12:11:50;97134.59;;;37.01;24.37
30873;BME280;17579;42.690;2.586;2022-07-22T12:14:18;97130.22;;;37.09;24.09
30873;BME280;17579;42.690;2.586;2022-07-22T12:19:39;97134.34;;;37.29;24.02
30873;BME280;17579;42.690;2.586;2022-07-22T12:22:08;97134.03;;;37.39;23.90
30873;BME280;17579;42.690;2.586;2022-07-22T12:24:43;97128.03;;;37.46;23.72
30873;BME280;17579;42.690;2.586;2022-07-22T12:27:16;97133.88;;;37.53;24.00
30873;BME280;17579;42.690;2.586;2022-07-22T12:29:46;97128.88;;;37.82;23.63
30873;BME280;17579;42.690;2.586;2022-07-22T12:35:02;97144.59;;;37.90;23.44
30873;BME280;17579;42.690;2.586;2022-07-22T12:37:34;97141.97;;;37.50;23.69
30873;BME280;17579;42.690;2.586;2022-07-22T12:40:19;97143.53;;;37.07;24.20
30873;BME280;17579;42.690;2.586;2022-07-22T12:42:59;97136.53;;;37.01;24.28
30873;BME280;17579;42.690;2.586;2022-07-22T12:45:27;97139.81;;;37.03;24.06
30873;BME280;17579;42.690;2.586;2022-07-22T12:48:06;97137.88;;;37.21;24.17
30873;BME280;17579;42.690;2.586;2022-07-22T12:50:41;97138.50;;;37.00;24.33
30873;BME280;17579;42.690;2.586;2022-07-22T12:53:09;97140.88;;;36.84;24.60
30873;BME280;17579;42.690;2.586;2022-07-22T12:55:42;97137.53;;;36.65;24.60
30873;BME280;17579;42.690;2.586;2022-07-22T12:58:09;97143.06;;;36.73;24.98
30873;BME280;17579;42.690;2.586;2022-07-22T13:00:38;97145.72;;;37.36;24.65
30873;BME280;17579;42.690;2.586;2022-07-22T13:03:04;97136.78;;;37.48;24.47
30873;BME280;17579;42.690;2.586;2022-07-22T13:05:30;97132.91;;;37.40;24.46
30873;BME280;17579;42.690;2.586;2022-07-22T13:07:56;97142.31;;;37.39;24.10
30873;BME280;17579;42.690;2.586;2022-07-22T13:10:24;97139.41;;;37.36;24.61
30873;BME280;17579;42.690;2.586;2022-07-22T13:12:50;97141.19;;;37.84;24.08
30873;BME280;17579;42.690;2.586;2022-07-22T13:15:17;97135.28;;;38.29;23.76